Xuwen, China
Current Conditions -  °F | °C
As of 3:00 PM on Monday 22 Dec 2014 (Local Time) from ZJHK Reporting Station
Overcast Overcast  
Wind Chill: 61°   Ceiling: 3000
Heat Index: 61°   Visibility: 6mi
Dew Point: 48°   Wind: 11mph
Humidity: 63%   Direction: 50°NE
Pressure: 30.15"   Gusts: NA
Location:  20.33°N, 110.15°E
Report Text: ZJHK 220700Z 05005MPS 360V080 9999 OVC030 16/09 Q1021 NOSIG
Loading
Personal Weather Stations






























Interactive Weather Map New forecast layout! Learn more

10-Day Weather Forecast

Advertisements
Track Severe Weather on mobile